Time;durP1;ratioP1;P1;durP2;ratioP2;P2;SDS_P1;SDS_P2;PMS_P1;PMS_P2;Temp;Humidity;BMP_temperature;BMP_pressure;BME280_temperature;BME280_humidity;BME280_pressure;Samples;Min_cycle;Max_cycle;Signal;HPM_P1;HPM_P2
2021/11/07 00:02:28;;;;;;;;;20.50;15.00;;;;;8.42;70.49;101382.19;5018453;28;45166;-77
2021/11/07 00:05:00;;;;;;;;;21.00;17.00;;;;;8.43;70.39;101391.84;5018252;28;45192;-78
2021/11/07 00:07:34;;;;;;;;;22.50;21.75;;;;;8.44;70.25;101390.09;5017983;28;45199;-78
2021/11/07 00:10:04;;;;;;;;;23.50;18.75;;;;;8.47;70.39;101390.00;5018573;28;45323;-78
2021/11/07 00:12:37;;;;;;;;;19.25;15.00;;;;;8.48;70.43;101383.81;5018092;28;45310;-77
2021/11/07 00:15:02;;;;;;;;;18.75;16.25;;;;;8.50;70.46;101387.25;5018475;28;45230;-78
2021/11/07 00:17:30;;;;;;;;;20.00;14.25;;;;;8.51;70.36;101372.19;5018168;28;45274;-77
2021/11/07 00:20:03;;;;;;;;;17.00;14.50;;;;;8.45;70.09;101363.56;5017422;28;47368;-77
2021/11/07 00:22:46;;;;;;;;;21.50;16.75;;;;;8.52;69.99;101372.16;5017995;28;45751;-78
2021/11/07 00:27:47;;;;;;;;;21.50;20.50;;;;;8.53;70.40;101363.28;5018106;28;45198;-78
2021/11/07 00:38:13;;;;;;;;;17.25;17.00;;;;;8.51;71.07;101353.66;5017565;28;45230;-78
2021/11/07 00:40:58;;;;;;;;;15.25;15.25;;;;;8.54;71.09;101343.81;5017684;28;46875;-78
2021/11/07 00:46:15;;;;;;;;;17.25;14.50;;;;;8.50;71.33;101344.00;5017877;28;45203;-78
2021/11/07 00:48:47;;;;;;;;;19.75;13.25;;;;;8.51;71.23;101346.59;5018120;28;45591;-77
2021/11/07 00:51:27;;;;;;;;;17.00;15.00;;;;;8.46;70.67;101336.16;5017730;28;46121;-80
2021/11/07 00:56:47;;;;;;;;;16.75;14.25;;;;;8.55;71.07;101345.56;5017276;28;45186;-78
2021/11/07 01:02:01;;;;;;;;;11.50;11.50;;;;;8.54;71.14;101335.88;5016828;28;46044;-79
2021/11/07 01:04:29;;;;;;;;;14.25;12.25;;;;;8.57;71.17;101337.56;5017187;28;45205;-78
2021/11/07 01:06:54;;;;;;;;;16.75;13.50;;;;;8.57;71.26;101329.59;5016929;28;45245;-77
2021/11/07 01:09:20;;;;;;;;;16.00;13.75;;;;;8.57;71.58;101337.56;5016832;28;45258;-78
2021/11/07 01:11:45;;;;;;;;;17.50;13.00;;;;;8.60;70.84;101335.66;5017241;28;46440;-78
2021/11/07 01:14:12;;;;;;;;;15.00;14.00;;;;;8.59;71.16;101319.81;5017259;28;45188;-78
2021/11/07 01:16:39;;;;;;;;;11.50;9.75;;;;;8.63;70.82;101319.63;5017554;28;45332;-78
2021/11/07 01:19:05;;;;;;;;;13.25;13.00;;;;;8.67;71.13;101312.44;5016858;28;45331;-78
2021/11/07 01:21:35;;;;;;;;;15.75;14.75;;;;;8.66;71.38;101312.50;5016996;28;46004;-78
2021/11/07 01:24:04;;;;;;;;;15.25;13.75;;;;;8.69;71.30;101312.41;5017134;28;45116;-78
2021/11/07 01:26:44;;;;;;;;;16.50;14.25;;;;;8.69;71.15;101301.78;5017415;28;45393;-78
2021/11/07 01:29:15;;;;;;;;;14.75;13.00;;;;;8.68;71.15;101287.69;5017650;28;45259;-78
2021/11/07 01:31:43;;;;;;;;;12.75;12.75;;;;;8.75;71.60;101297.16;5016780;28;46248;-78
2021/11/07 01:34:19;;;;;;;;;11.50;11.50;;;;;8.76;71.44;101290.03;5016648;28;45708;-78
2021/11/07 01:36:51;;;;;;;;;15.50;13.25;;;;;8.80;71.36;101281.06;5017377;28;45242;-78
2021/11/07 01:39:24;;;;;;;;;14.50;13.50;;;;;8.80;71.56;101278.41;5017030;28;45182;-78
2021/11/07 01:42:05;;;;;;;;;15.50;14.25;;;;;8.76;71.38;101267.03;5016746;28;45935;-78
2021/11/07 01:45:10;;;;;;;;;15.50;14.00;;;;;8.83;71.72;101269.47;5016376;28;45771;-78
2021/11/07 01:47:39;;;;;;;;;14.00;14.00;;;;;8.84;71.60;101268.56;5016560;28;45539;-78
2021/11/07 01:50:06;;;;;;;;;16.50;14.00;;;;;8.86;71.75;101258.75;5015545;28;45159;-78
2021/11/07 01:52:36;;;;;;;;;14.50;13.25;;;;;8.87;72.31;101249.88;5016986;28;46132;-78
2021/11/07 01:55:05;;;;;;;;;11.75;10.75;;;;;8.88;72.13;101255.13;5016937;28;45646;-78
2021/11/07 01:57:32;;;;;;;;;15.00;12.00;;;;;8.90;71.63;101253.28;5016392;28;45160;-78
2021/11/07 02:00:06;;;;;;;;;15.25;11.50;;;;;8.92;71.98;101258.53;5016732;28;45175;-78
2021/11/07 02:02:35;;;;;;;;;13.00;12.00;;;;;8.92;72.31;101245.25;5016492;28;46249;-78
2021/11/07 02:05:03;;;;;;;;;12.75;12.00;;;;;8.93;72.69;101247.00;5017080;28;45172;-78
2021/11/07 02:07:28;;;;;;;;;12.50;12.50;;;;;8.93;72.96;101247.00;5016275;28;45195;-78
2021/11/07 02:09:54;;;;;;;;;17.50;11.75;;;;;8.91;73.31;101240.91;5017146;28;45161;-78
2021/11/07 02:12:19;;;;;;;;;11.25;11.25;;;;;8.94;73.82;101243.44;5016382;28;45219;-78
2021/11/07 02:14:45;;;;;;;;;13.25;12.00;;;;;8.90;74.13;101236.50;5016649;28;45349;-78
2021/11/07 02:17:12;;;;;;;;;15.50;14.00;;;;;8.91;74.41;101243.56;5016354;28;45253;-78
2021/11/07 02:19:41;;;;;;;;;13.75;10.75;;;;;8.89;74.77;101229.47;5016208;28;45285;-78
2021/11/07 02:22:07;;;;;;;;;12.75;11.50;;;;;8.85;75.00;101234.03;5016006;28;46362;-78
2021/11/07 02:24:34;;;;;;;;;15.50;12.75;;;;;8.83;74.75;101219.09;5016679;28;45127;-78
2021/11/07 02:27:01;;;;;;;;;16.50;12.75;;;;;8.84;75.27;101226.16;5016552;28;45342;-78
2021/11/07 02:29:29;;;;;;;;;12.00;12.00;;;;;8.83;75.30;101217.31;5016490;28;45224;-78
2021/11/07 02:31:57;;;;;;;;;13.25;12.25;;;;;8.83;74.89;101217.31;5015938;28;46358;-78
2021/11/07 02:34:27;;;;;;;;;15.00;13.75;;;;;8.86;75.21;101213.69;5016414;28;45391;-78
2021/11/07 02:36:53;;;;;;;;;14.75;11.75;;;;;8.86;75.96;101203.06;5016495;28;45226;-78
2021/11/07 02:39:20;;;;;;;;;15.00;12.00;;;;;8.86;76.02;101201.28;5016208;28;45209;-78
2021/11/07 02:41:46;;;;;;;;;15.00;13.25;;;;;8.87;75.33;101204.81;5015849;28;46193;-78
2021/11/07 02:44:25;;;;;;;;;16.50;14.25;;;;;8.86;75.88;101203.94;5015469;28;45752;-80
2021/11/07 02:46:51;;;;;;;;;12.75;12.50;;;;;8.84;75.63;101191.66;5016346;28;45236;-78
2021/11/07 02:49:16;;;;;;;;;11.25;11.00;;;;;8.86;75.85;101180.06;5016160;28;45633;-78
2021/11/07 02:51:42;;;;;;;;;13.00;10.75;;;;;8.86;75.77;101187.16;5015932;28;46911;-78
2021/11/07 02:54:08;;;;;;;;;14.75;11.75;;;;;8.90;75.86;101183.47;5016278;28;45259;-77
2021/11/07 02:56:34;;;;;;;;;12.50;12.00;;;;;8.88;76.99;101177.34;5016379;28;45203;-77
2021/11/07 02:59:00;;;;;;;;;15.25;12.50;;;;;8.90;76.34;101178.16;5015745;28;45235;-77
2021/11/07 03:01:28;;;;;;;;;13.00;12.00;;;;;8.90;76.52;101172.88;5015297;28;46186;-78
2021/11/07 03:04:01;;;;;;;;;14.25;11.50;;;;;8.88;76.53;101175.56;5015785;28;45172;-78
2021/11/07 03:06:30;;;;;;;;;14.75;11.75;;;;;8.89;76.75;101173.78;5015903;28;45187;-77
2021/11/07 03:08:55;;;;;;;;;15.00;12.00;;;;;8.88;76.91;101177.34;5016218;28;45281;-78
2021/11/07 03:11:21;;;;;;;;;12.00;12.00;;;;;8.81;77.01;101166.13;5015936;28;45223;-78
2021/11/07 03:13:48;;;;;;;;;13.75;12.50;;;;;8.86;76.42;101160.63;5015737;28;45227;-77
2021/11/07 03:16:14;;;;;;;;;13.75;12.00;;;;;8.89;76.75;101171.13;5016175;28;45184;-78
2021/11/07 03:18:40;;;;;;;;;16.00;14.75;;;;;8.89;77.48;101161.41;5015463;28;45248;-78
2021/11/07 03:21:07;;;;;;;;;14.25;12.00;;;;;8.87;77.24;101160.59;5015591;28;46179;-78
2021/11/07 03:23:36;;;;;;;;;12.00;12.00;;;;;8.88;77.19;101164.97;5015399;28;45630;-78
2021/11/07 03:26:07;;;;;;;;;12.75;10.75;;;;;8.91;77.28;101169.28;5015670;28;45289;-78
2021/11/07 03:28:33;;;;;;;;;11.75;11.75;;;;;8.91;76.96;101164.00;5206646;22;45489;-79
2021/11/07 03:31:09;;;;;;;;;16.50;11.25;;;;;8.95;77.56;101154.97;5054186;28;47142;-78
2021/11/07 03:33:45;;;;;;;;;13.50;12.50;;;;;8.94;77.90;101154.13;5055274;28;45225;-78
2021/11/07 03:36:16;;;;;;;;;13.50;11.25;;;;;8.93;77.34;101148.88;5055739;28;45146;-78
2021/11/07 03:38:41;;;;;;;;;13.25;13.25;;;;;8.95;77.64;101139.06;5055373;28;45241;-78
2021/11/07 03:41:07;;;;;;;;;14.50;12.00;;;;;8.95;77.49;101150.53;5055709;28;46617;-79
2021/11/07 03:43:32;;;;;;;;;14.00;12.00;;;;;8.96;77.48;101151.41;5055735;28;45266;-79
2021/11/07 03:45:58;;;;;;;;;15.75;14.00;;;;;8.96;77.66;101152.28;5055648;28;45244;-79
2021/11/07 03:48:24;;;;;;;;;11.25;11.25;;;;;8.97;77.73;101145.19;5054967;28;45312;-79
2021/11/07 03:50:50;;;;;;;;;14.25;10.75;;;;;8.98;77.62;101158.38;5055270;28;46315;-79
2021/11/07 03:53:16;;;;;;;;;12.25;10.50;;;;;9.02;77.31;101156.47;5055547;28;45284;-79
2021/11/07 03:55:41;;;;;;;;;11.50;10.75;;;;;8.98;77.12;101136.31;5056673;28;45204;-79
2021/11/07 03:58:07;;;;;;;;;15.25;11.75;;;;;9.04;77.74;101151.97;5058826;28;45147;-79
2021/11/07 04:00:32;;;;;;;;;12.50;10.75;;;;;9.05;78.37;101150.16;5058947;28;45286;-79
2021/11/07 04:02:58;;;;;;;;;12.00;11.00;;;;;8.95;78.14;101131.97;5058527;28;45235;-79
2021/11/07 04:05:24;;;;;;;;;11.75;9.50;;;;;9.05;78.59;101139.56;5058553;28;45212;-79
2021/11/07 04:07:50;;;;;;;;;16.50;13.50;;;;;9.05;78.34;101148.41;5059026;28;45308;-79
2021/11/07 04:10:16;;;;;;;;;12.75;11.00;;;;;9.03;77.82;101133.47;5058337;28;45196;-78
2021/11/07 04:12:42;;;;;;;;;11.50;9.25;;;;;9.05;78.43;101132.47;5057077;28;45351;-78
2021/11/07 04:15:09;;;;;;;;;13.25;13.25;;;;;9.06;77.92;101134.19;5058659;28;45234;-78
2021/11/07 04:17:35;;;;;;;;;13.50;9.25;;;;;9.07;77.59;101132.41;5058374;28;45278;-77
2021/11/07 04:20:01;;;;;;;;;11.25;11.25;;;;;9.11;77.53;101123.41;5058397;28;46420;-79
2021/11/07 04:22:26;;;;;;;;;12.75;11.75;;;;;9.11;78.54;101121.63;5057788;28;45232;-79
2021/11/07 04:24:52;;;;;;;;;14.75;11.00;;;;;9.13;78.16;101125.06;5058325;28;45226;-79
2021/11/07 04:27:18;;;;;;;;;14.00;12.25;;;;;9.15;78.22;101136.50;5057932;28;45301;-79
2021/11/07 04:29:43;;;;;;;;;11.50;8.75;;;;;9.15;77.83;101123.22;5057425;28;45844;-79
2021/11/07 04:32:08;;;;;;;;;14.25;12.00;;;;;9.18;77.77;101119.59;5057498;28;45263;-79
2021/11/07 04:34:34;;;;;;;;;9.75;9.75;;;;;9.21;77.77;101116.81;5057898;28;45164;-79
2021/11/07 04:37:01;;;;;;;;;8.00;7.75;;;;;9.24;77.78;101122.00;5058411;28;45204;-79
2021/11/07 04:39:27;;;;;;;;;8.25;8.25;;;;;9.24;77.66;101105.22;5057336;28;47416;-79
2021/11/07 04:41:52;;;;;;;;;9.50;7.50;;;;;9.25;77.85;101107.81;5057949;28;45210;-79
2021/11/07 04:44:18;;;;;;;;;8.25;8.25;;;;;9.27;78.14;101100.63;5057553;28;45320;-79
2021/11/07 04:46:43;;;;;;;;;11.25;9.25;;;;;9.25;77.89;101105.16;5057842;28;45238;-79
2021/11/07 04:49:09;;;;;;;;;13.00;10.50;;;;;9.27;78.35;101107.75;5057442;28;45274;-79
2021/11/07 04:51:34;;;;;;;;;10.50;9.25;;;;;9.27;77.86;101089.16;5057758;28;45191;-79
2021/11/07 04:54:00;;;;;;;;;12.00;8.00;;;;;9.27;78.33;101084.72;5058220;28;45222;-79
2021/11/07 04:56:26;;;;;;;;;11.25;8.00;;;;;9.26;78.08;101084.78;5058195;28;45181;-79
2021/11/07 04:58:51;;;;;;;;;10.75;9.75;;;;;9.20;78.15;101067.31;5057641;28;45349;-79
2021/11/07 05:01:16;;;;;;;;;10.75;10.75;;;;;9.27;78.05;101094.47;5058073;28;45139;-79
2021/11/07 05:03:42;;;;;;;;;8.50;8.50;;;;;9.26;78.45;101072.38;5056319;28;45135;-79
2021/11/07 05:06:08;;;;;;;;;9.75;9.75;;;;;9.25;78.24;101072.44;5057616;28;45190;-79
2021/11/07 05:08:33;;;;;;;;;11.75;10.25;;;;;9.19;78.43;101064.72;5057609;28;45988;-79
2021/11/07 05:10:59;;;;;;;;;8.50;8.50;;;;;9.22;78.61;101083.16;5057984;28;45182;-79
2021/11/07 05:13:25;;;;;;;;;11.00;9.50;;;;;9.21;78.16;101082.31;5058053;28;45188;-79
2021/11/07 05:15:50;;;;;;;;;9.25;9.25;;;;;9.21;78.80;101082.31;5057995;28;45155;-79
2021/11/07 05:18:18;;;;;;;;;11.50;11.50;;;;;9.20;78.45;101077.94;5057425;28;45486;-79
2021/11/07 05:20:44;;;;;;;;;15.50;11.50;;;;;9.21;78.54;101084.13;5057470;28;45272;-79
2021/11/07 05:23:10;;;;;;;;;11.75;10.25;;;;;9.19;78.62;101072.69;5057624;28;45193;-79
2021/11/07 05:25:35;;;;;;;;;11.25;9.00;;;;;9.21;78.82;101077.00;5057611;28;45248;-79
2021/11/07 05:28:01;;;;;;;;;12.25;11.75;;;;;9.18;78.63;101078.91;5056751;28;46308;-79
2021/11/07 05:30:27;;;;;;;;;11.25;11.25;;;;;9.21;78.50;101084.13;5057247;28;45258;-79
2021/11/07 05:32:53;;;;;;;;;10.00;8.00;;;;;9.21;78.29;101082.31;5057292;28;45276;-79
2021/11/07 05:35:19;;;;;;;;;9.25;9.25;;;;;9.25;78.00;101080.38;5057241;28;45087;-79
2021/11/07 05:37:46;;;;;;;;;10.50;10.25;;;;;9.27;78.29;101076.75;5057166;28;46311;-79
2021/11/07 05:40:12;;;;;;;;;12.00;10.75;;;;;9.29;78.73;101071.38;5057119;28;45233;-79
2021/11/07 05:42:37;;;;;;;;;12.50;10.75;;;;;9.28;78.42;101062.56;5057063;28;45260;-79
2021/11/07 05:45:05;;;;;;;;;12.25;11.75;;;;;9.30;78.65;101059.84;5057384;28;45400;-79
2021/11/07 05:47:30;;;;;;;;;12.50;9.00;;;;;9.32;78.26;101058.00;5056872;28;46410;-78
2021/11/07 05:49:57;;;;;;;;;14.50;13.00;;;;;9.36;78.15;101056.06;5057269;28;45262;-79
2021/11/07 05:52:22;;;;;;;;;12.00;9.50;;;;;9.37;78.19;101053.34;5057162;28;45324;-79
2021/11/07 05:54:47;;;;;;;;;9.50;9.25;;;;;9.40;77.83;101057.66;5057361;28;45178;-79
2021/11/07 05:57:13;;;;;;;;;11.50;9.25;;;;;9.40;77.53;101063.81;5057212;28;46697;-79
2021/11/07 05:59:39;;;;;;;;;10.50;10.50;;;;;9.43;77.88;101068.16;5056658;28;45210;-79
2021/11/07 06:02:05;;;;;;;;;12.75;11.50;;;;;9.45;78.12;101067.16;5057093;28;45205;-78
2021/11/07 06:04:30;;;;;;;;;9.00;9.00;;;;;9.48;78.06;101067.03;5056592;28;45201;-78
2021/11/07 06:06:56;;;;;;;;;12.00;11.00;;;;;9.46;77.54;101060.03;5056662;28;45676;-78
2021/11/07 06:09:21;;;;;;;;;13.50;10.25;;;;;9.49;77.84;101060.78;5056633;28;45186;-78
2021/11/07 06:11:47;;;;;;;;;10.00;9.00;;;;;9.51;78.02;101052.75;5056875;28;45222;-78
2021/11/07 06:14:12;;;;;;;;;8.50;8.50;;;;;9.49;78.23;101062.56;5056921;28;45181;-78
2021/11/07 06:16:38;;;;;;;;;10.25;8.00;;;;;9.52;77.78;101066.88;5056327;28;45294;-78
2021/11/07 06:19:03;;;;;;;;;10.75;10.75;;;;;9.57;78.15;101067.56;5055820;28;45219;-79
2021/11/07 06:21:29;;;;;;;;;8.25;7.00;;;;;9.48;78.00;101058.22;5056555;28;45214;-78
2021/11/07 06:23:57;;;;;;;;;13.25;10.50;;;;;9.54;77.93;101073.88;5056366;28;45265;-79
2021/11/07 06:26:23;;;;;;;;;8.25;7.50;;;;;9.60;77.75;101073.59;5056269;28;47369;-78
2021/11/07 06:28:50;;;;;;;;;12.00;10.00;;;;;9.64;77.62;101079.66;5056090;28;45583;-78
2021/11/07 06:31:15;;;;;;;;;12.25;10.00;;;;;9.68;77.96;101079.44;5056652;28;45584;-78
2021/11/07 06:33:41;;;;;;;;;8.50;7.25;;;;;9.72;77.56;101068.69;5056491;28;45281;-79
2021/11/07 06:36:06;;;;;;;;;12.25;10.75;;;;;9.77;77.14;101064.03;5056198;28;46961;-79
2021/11/07 06:38:32;;;;;;;;;10.25;10.25;;;;;9.76;77.66;101064.97;5055964;28;45206;-78
2021/11/07 06:40:58;;;;;;;;;11.50;10.50;;;;;9.75;77.47;101066.78;5056486;28;45279;-78
2021/11/07 06:43:24;;;;;;;;;10.25;9.25;;;;;9.75;77.75;101057.91;5056307;28;45311;-78
2021/11/07 06:45:50;;;;;;;;;10.25;9.25;;;;;9.74;78.23;101059.72;5054786;28;47605;-78
2021/11/07 06:48:16;;;;;;;;;13.75;11.25;;;;;9.72;77.90;101074.00;5056171;28;45551;-78
2021/11/07 06:50:42;;;;;;;;;15.00;9.75;;;;;9.69;77.97;101069.69;5056593;28;45244;-78
2021/11/07 06:53:08;;;;;;;;;8.00;8.00;;;;;9.66;77.88;101072.47;5056264;28;45198;-79
2021/11/07 06:55:33;;;;;;;;;15.00;10.00;;;;;9.69;78.13;101072.34;5056042;28;45765;-79
2021/11/07 06:57:59;;;;;;;;;8.50;8.50;;;;;9.64;78.52;101064.56;5056312;28;45134;-79
2021/11/07 07:00:26;;;;;;;;;10.00;10.00;;;;;9.66;78.16;101068.03;5055817;28;45469;-79
2021/11/07 07:02:52;;;;;;;;;9.25;8.50;;;;;9.68;78.25;101066.16;5055917;28;45301;-79
2021/11/07 07:05:19;;;;;;;;;12.00;10.50;;;;;9.74;77.92;101073.00;5055812;28;45950;-79
2021/11/07 07:07:49;;;;;;;;;9.75;9.00;;;;;9.72;78.12;101056.28;5055804;28;45276;-79
2021/11/07 07:10:33;;;;;;;;;11.25;8.00;;;;;9.76;78.16;101062.31;5056035;28;45390;-79
2021/11/07 07:13:14;;;;;;;;;10.25;9.00;;;;;9.78;78.27;101061.31;5056162;28;45256;-79
2021/11/07 07:15:43;;;;;;;;;14.00;10.50;;;;;9.75;78.37;101061.47;5055930;28;46112;-79
2021/11/07 07:23:35;;;;;;;;;10.25;9.50;;;;;9.72;78.58;101063.38;5055843;28;45238;-79
2021/11/07 07:32:12;;;;;;;;;13.50;8.75;;;;;9.79;78.62;101078.09;5057791;28;45161;-78
2021/11/07 07:34:17;;;;;;;;;9.75;9.75;;;;;9.80;78.25;101071.88;5055797;28;45281;-77
2021/11/07 07:36:43;;;;;;;;;9.25;9.25;;;;;9.79;78.81;101076.34;5059035;28;45458;-78
2021/11/07 07:39:08;;;;;;;;;12.50;10.75;;;;;9.79;78.59;101067.47;5058568;28;45215;-78
2021/11/07 07:41:34;;;;;;;;;14.25;11.00;;;;;9.80;78.82;101064.75;5059499;28;45203;-78
2021/11/07 07:44:06;;;;;;;;;9.00;8.25;;;;;9.79;79.04;101059.50;5057616;28;45378;-78
2021/11/07 07:46:31;;;;;;;;;7.75;7.75;;;;;9.76;79.06;101059.66;5058912;28;47045;-78
2021/11/07 07:48:58;;;;;;;;;11.00;9.25;;;;;9.77;78.67;101067.56;5059025;28;45326;-78
2021/11/07 07:51:25;;;;;;;;;7.25;7.25;;;;;9.72;78.85;101061.59;5059329;28;45183;-78
2021/11/07 07:53:51;;;;;;;;;10.00;9.00;;;;;9.79;79.04;101071.03;5058700;28;45168;-78
2021/11/07 07:56:16;;;;;;;;;9.75;8.00;;;;;9.81;79.03;101062.97;5058613;28;46566;-77
2021/11/07 07:58:41;;;;;;;;;7.75;7.00;;;;;9.87;78.92;101064.50;5058945;28;45186;-77
2021/11/07 08:01:08;;;;;;;;;7.25;6.75;;;;;9.94;79.22;101068.63;5059194;28;45708;-78
2021/11/07 08:03:34;;;;;;;;;9.75;6.00;;;;;9.98;78.72;101064.91;5058825;28;45248;-78
2021/11/07 08:05:59;;;;;;;;;7.75;7.00;;;;;10.07;78.66;101067.13;5058881;28;46469;-79
2021/11/07 08:08:25;;;;;;;;;10.00;8.00;;;;;10.06;78.37;101072.50;5056813;28;45574;-79
2021/11/07 08:10:50;;;;;;;;;9.00;8.00;;;;;10.12;78.64;101075.75;5058843;28;45279;-78
2021/11/07 08:13:16;;;;;;;;;15.00;13.75;;;;;10.17;78.17;101064.91;5058964;28;45258;-77
2021/11/07 08:15:42;;;;;;;;;9.00;8.00;;;;;10.19;78.58;101068.38;5058509;28;45598;-78
2021/11/07 08:18:07;;;;;;;;;9.25;7.75;;;;;10.21;78.25;101055.88;5057622;28;45211;-79
2021/11/07 08:20:33;;;;;;;;;10.25;8.75;;;;;10.28;78.45;101056.47;5058833;28;45225;-78
2021/11/07 08:22:58;;;;;;;;;10.75;8.00;;;;;10.30;78.70;101052.81;5058434;28;45178;-78
2021/11/07 08:25:24;;;;;;;;;8.00;7.75;;;;;10.34;78.40;101059.72;5058277;28;45606;-78
2021/11/07 08:27:56;;;;;;;;;8.25;7.00;;;;;10.39;78.50;101061.31;5058364;28;45217;-78
2021/11/07 08:30:25;;;;;;;;;9.25;7.25;;;;;10.39;78.34;101061.31;5058153;28;45300;-78
2021/11/07 08:32:50;;;;;;;;;8.00;6.00;;;;;10.36;78.46;101068.50;5058361;28;45370;-78
2021/11/07 08:35:16;;;;;;;;;10.75;6.75;;;;;10.38;78.50;101055.13;5057970;28;45768;-78
2021/11/07 08:40:11;;;;;;;;;5.75;5.25;;;;;10.34;79.07;101043.75;5058171;28;45206;-77
2021/11/07 08:42:59;;;;;;;;;7.25;7.00;;;;;10.37;78.99;101056.06;5058151;28;45371;-77
2021/11/07 09:04:36;;;;;;;;;12.00;7.50;;;;;10.58;79.38;101038.25;5057965;28;45222;-80
2021/11/07 09:09:48;;;;;;;;;7.50;6.75;;;;;10.70;78.94;101052.75;5057686;28;45699;-81
2021/11/07 09:12:14;;;;;;;;;6.00;6.00;;;;;10.71;78.87;101055.31;5058119;28;45158;-81
2021/11/07 09:14:41;;;;;;;;;5.25;5.25;;;;;10.77;79.01;101062.16;5057639;28;45272;-80
2021/11/07 09:17:11;;;;;;;;;7.00;5.00;;;;;10.80;78.82;101064.69;5057458;28;46054;-81
2021/11/07 09:19:38;;;;;;;;;8.00;6.00;;;;;10.84;78.62;101060.06;5057304;28;45232;-81
2021/11/07 09:22:13;;;;;;;;;5.75;5.00;;;;;10.92;78.63;101059.72;5057580;28;45221;-81
2021/11/07 09:24:45;;;;;;;;;5.75;4.50;;;;;10.89;78.38;101047.41;5055767;28;45201;-81
2021/11/07 09:27:21;;;;;;;;;6.50;6.00;;;;;10.98;78.30;101062.06;5057772;28;46058;-81
2021/11/07 09:30:08;;;;;;;;;8.50;5.00;;;;;11.01;78.48;101054.78;5055821;28;45205;-81
2021/11/07 09:36:07;;;;;;;;;9.75;8.00;;;;;11.13;78.62;101050.66;5057679;28;45213;-80
2021/11/07 09:38:01;;;;;;;;;6.00;6.00;;;;;11.17;78.40;101059.34;5054080;28;45447;-81
2021/11/07 09:40:28;;;;;;;;;4.00;2.75;;;;;11.29;78.33;101063.22;5056715;28;45158;-81
2021/11/07 09:50:41;;;;;;;;;14.00;12.75;;;;;11.52;77.32;101057.56;5056988;28;45561;-81
2021/11/07 09:53:06;;;;;;;;;7.75;6.00;;;;;11.56;77.60;101059.13;5056639;28;45199;-80
2021/11/07 09:55:33;;;;;;;;;6.25;6.00;;;;;11.63;77.28;101074.78;5057317;28;45471;-80
2021/11/07 09:57:59;;;;;;;;;10.25;7.75;;;;;11.70;77.45;101079.72;5055619;28;46909;-80
2021/11/07 10:00:41;;;;;;;;;6.25;6.00;;;;;11.75;77.34;101074.16;5056611;28;45248;-81
2021/11/07 10:03:07;;;;;;;;;12.00;10.50;;;;;11.81;77.14;101070.31;5056773;28;45242;-82
2021/11/07 10:05:38;;;;;;;;;6.00;6.00;;;;;11.90;77.08;101077.84;5057150;28;45246;-81
2021/11/07 10:08:05;;;;;;;;;5.00;4.75;;;;;12.04;77.14;101075.34;5056194;28;46919;-81
2021/11/07 10:10:35;;;;;;;;;6.50;5.50;;;;;12.18;76.78;101069.25;5056463;28;45653;-81
2021/11/07 10:13:12;;;;;;;;;7.25;7.25;;;;;12.36;76.21;101086.06;5056714;28;45221;-81
2021/11/07 10:15:43;;;;;;;;;21.50;17.25;;;;;12.43;75.79;101067.94;5056824;28;45523;-81
2021/11/07 10:18:13;;;;;;;;;8.00;8.00;;;;;12.56;75.46;101073.44;5055978;28;46592;-81
2021/11/07 10:20:47;;;;;;;;;8.50;8.00;;;;;12.54;75.58;101078.88;5056487;28;45492;-86
2021/11/07 10:23:22;;;;;;;;;7.00;5.00;;;;;12.55;75.14;101067.22;5056551;28;45266;-81
2021/11/07 10:25:57;;;;;;;;;8.75;6.00;;;;;12.59;74.80;101058.13;5056881;28;45481;-81
2021/11/07 10:28:29;;;;;;;;;7.75;5.75;;;;;12.58;74.72;101047.53;5056179;28;45319;-81
2021/11/07 10:31:11;;;;;;;;;6.75;5.00;;;;;12.88;74.69;101071.66;5056427;28;45292;-81
2021/11/07 10:39:19;;;;;;;;;5.75;5.50;;;;;13.10;73.52;101081.94;5055966;28;45254;-84
2021/11/07 10:52:37;;;;;;;;;4.00;2.50;;;;;13.11;73.23;101090.81;5056105;28;45241;-79
2021/11/07 10:55:04;;;;;;;;;5.00;3.50;;;;;13.12;73.23;101082.72;5055565;28;45217;-79
2021/11/07 10:57:31;;;;;;;;;5.25;2.00;;;;;13.12;72.50;101079.19;5055844;28;45374;-80
2021/11/07 11:00:14;;;;;;;;;2.75;2.75;;;;;13.11;72.48;101090.81;5055498;28;45879;-79
2021/11/07 11:02:50;;;;;;;;;3.00;3.00;;;;;13.12;72.17;101097.88;5055646;28;45537;-80
2021/11/07 11:05:20;;;;;;;;;5.50;3.00;;;;;13.09;71.78;101093.56;5057805;28;45201;-80
2021/11/07 11:07:49;;;;;;;;;6.00;3.50;;;;;13.07;71.75;101098.13;5059787;28;45192;-79
2021/11/07 11:10:19;;;;;;;;;6.75;4.50;;;;;13.10;71.97;101084.63;5059230;28;45265;-79
2021/11/07 11:26:39;;;;;;;;;6.00;2.75;;;;;13.16;68.92;101071.88;5017021;28;45227;-80
2021/11/07 11:34:21;;;;;;;;;8.50;3.50;;;;;13.17;69.08;101061.09;5016712;28;45225;-79
2021/11/07 11:36:55;;;;;;;;;5.00;4.00;;;;;13.19;68.41;101056.50;5017260;28;45236;-79
2021/11/07 11:39:30;;;;;;;;;2.25;2.25;;;;;13.28;67.78;101064.00;5016614;28;45245;-79
2021/11/07 11:42:08;;;;;;;;;5.00;2.50;;;;;13.41;68.04;101073.97;5016187;28;47007;-79
2021/11/07 11:44:34;;;;;;;;;5.00;3.00;;;;;13.53;67.88;101075.94;5016191;28;45645;-80
2021/11/07 11:55:52;;;;;;;;;5.25;3.00;;;;;14.33;66.31;101065.69;5038172;28;45342;-83
2021/11/07 12:01:27;;;;;;;;;7.00;3.75;;;;;14.62;65.18;101065.72;5036786;28;45204;-79
2021/11/07 12:04:11;;;;;;;;;6.00;3.00;;;;;14.72;65.08;101047.25;5036142;28;47126;-80
2021/11/07 12:09:29;;;;;;;;;6.50;3.00;;;;;15.23;63.11;101040.34;5039605;28;45267;-83
2021/11/07 12:12:03;;;;;;;;;7.75;3.75;;;;;15.50;62.27;101061.75;5037125;28;45224;-80
2021/11/07 12:14:46;;;;;;;;;6.75;3.25;;;;;15.63;61.56;101062.59;5035795;28;47176;-80
2021/11/07 12:17:12;;;;;;;;;4.50;2.75;;;;;15.70;60.65;101058.56;5035346;28;45340;-79
2021/11/07 12:19:43;;;;;;;;;1.75;1.75;;;;;15.77;60.42;101044.72;5035842;28;45314;-80
2021/11/07 12:22:23;;;;;;;;;3.25;2.25;;;;;15.80;60.38;101055.25;5036352;28;45216;-77
2021/11/07 12:24:48;;;;;;;;;2.75;1.00;;;;;15.83;59.65;101057.72;5018669;28;47187;-79
2021/11/07 12:27:20;;;;;;;;;5.00;2.00;;;;;15.83;59.14;101055.91;5036145;28;45305;-80
2021/11/07 12:29:46;;;;;;;;;5.75;2.25;;;;;15.73;59.08;101044.06;5035720;28;45207;-80
2021/11/07 12:32:12;;;;;;;;;3.25;3.00;;;;;15.61;58.89;101044.94;5055170;28;45288;-80
2021/11/07 12:34:58;;;;;;;;;7.25;4.00;;;;;15.38;59.06;101046.47;5058050;28;46173;-80
2021/11/07 12:40:34;;;;;;;;;4.50;3.00;;;;;15.00;59.75;101051.63;5058047;28;45265;-79
2021/11/07 12:43:07;;;;;;;;;3.00;2.75;;;;;14.89;59.66;101047.94;5058918;28;45211;-79
2021/11/07 12:45:40;;;;;;;;;3.00;2.50;;;;;14.73;59.05;101040.91;5057928;28;46294;-80
2021/11/07 12:48:09;;;;;;;;;4.00;3.25;;;;;14.59;60.10;101041.78;5058456;28;45265;-79
2021/11/07 12:50:55;;;;;;;;;4.25;2.00;;;;;14.51;60.39;101049.44;5058587;28;45168;-78
2021/11/07 12:53:25;;;;;;;;;3.00;2.00;;;;;14.42;59.75;101042.88;5058064;28;45282;-79
2021/11/07 12:55:50;;;;;;;;;4.00;2.75;;;;;14.35;60.36;101044.22;5057559;28;46078;-79
2021/11/07 12:58:17;;;;;;;;;2.25;1.75;;;;;14.33;60.75;101048.78;5057581;28;45233;-80
2021/11/07 13:00:42;;;;;;;;;3.75;3.25;;;;;14.35;60.50;101052.25;5057840;28;45243;-79
2021/11/07 13:03:10;;;;;;;;;4.50;3.25;;;;;14.49;59.59;101051.34;5057646;28;45241;-80
2021/11/07 13:05:38;;;;;;;;;5.00;3.00;;;;;14.60;59.67;101048.00;5057771;28;45326;-79
2021/11/07 13:08:06;;;;;;;;;3.50;2.25;;;;;14.70;59.58;101041.13;5057494;28;45497;-80
2021/11/07 13:13:49;;;;;;;;;3.75;1.75;;;;;14.92;59.44;101035.22;5057479;28;45297;-79
2021/11/07 13:19:15;;;;;;;;;3.00;1.75;;;;;15.10;59.10;101033.13;5063059;28;45234;-80
2021/11/07 13:26:48;;;;;;;;;4.50;3.00;;;;;15.04;58.91;101059.47;5067197;28;45979;-90
2021/11/07 13:34:25;;;;;;;;;5.25;2.25;;;;;14.91;58.16;101043.38;5057400;28;45285;-80
2021/11/07 13:36:51;;;;;;;;;5.00;2.25;;;;;14.81;57.84;101035.91;5057147;28;45849;-80
2021/11/07 13:39:28;;;;;;;;;5.75;2.75;;;;;14.71;57.52;101036.59;5057252;28;45260;-81
2021/11/07 13:42:00;;;;;;;;;3.75;1.75;;;;;14.56;57.64;101030.41;5057544;28;45241;-81
2021/11/07 13:44:28;;;;;;;;;2.50;1.75;;;;;14.44;57.94;101026.72;5057341;28;45422;-81